sensor_id;sensor_type;location;lat;lon;timestamp;P1;durP1;ratioP1;P2;durP2;ratioP2
7783;SDS011;19359;51.402;6.778;2024-02-16T00:01:06;681.93;;;198.90;;
7783;SDS011;19359;51.402;6.778;2024-02-16T00:03:33;686.20;;;205.07;;
7783;SDS011;19359;51.402;6.778;2024-02-16T00:05:59;687.40;;;206.53;;
7783;SDS011;19359;51.402;6.778;2024-02-16T00:08:28;702.90;;;232.37;;
7783;SDS011;19359;51.402;6.778;2024-02-16T00:10:55;705.13;;;235.68;;
7783;SDS011;19359;51.402;6.778;2024-02-16T00:13:22;702.83;;;224.30;;
7783;SDS011;19359;51.402;6.778;2024-02-16T00:15:48;705.20;;;229.52;;
7783;SDS011;19359;51.402;6.778;2024-02-16T00:18:15;697.83;;;220.75;;
7783;SDS011;19359;51.402;6.778;2024-02-16T00:20:42;709.50;;;243.73;;
7783;SDS011;19359;51.402;6.778;2024-02-16T00:23:08;711.40;;;245.68;;
7783;SDS011;19359;51.402;6.778;2024-02-16T00:25:37;689.80;;;209.63;;
7783;SDS011;19359;51.402;6.778;2024-02-16T00:28:05;689.27;;;212.97;;
7783;SDS011;19359;51.402;6.778;2024-02-16T00:30:32;690.93;;;219.67;;
7783;SDS011;19359;51.402;6.778;2024-02-16T00:32:59;685.93;;;203.77;;
7783;SDS011;19359;51.402;6.778;2024-02-16T00:35:26;684.93;;;203.60;;
7783;SDS011;19359;51.402;6.778;2024-02-16T00:37:53;688.27;;;210.87;;
7783;SDS011;19359;51.402;6.778;2024-02-16T00:40:20;684.10;;;200.87;;
7783;SDS011;19359;51.402;6.778;2024-02-16T00:42:49;682.50;;;203.37;;
7783;SDS011;19359;51.402;6.778;2024-02-16T00:45:16;684.60;;;203.57;;
7783;SDS011;19359;51.402;6.778;2024-02-16T00:47:42;684.63;;;204.17;;
7783;SDS011;19359;51.402;6.778;2024-02-16T00:50:10;685.38;;;205.07;;
7783;SDS011;19359;51.402;6.778;2024-02-16T00:52:37;688.33;;;211.43;;
7783;SDS011;19359;51.402;6.778;2024-02-16T00:55:04;681.07;;;194.50;;
7783;SDS011;19359;51.402;6.778;2024-02-16T00:57:31;685.60;;;207.57;;
7783;SDS011;19359;51.402;6.778;2024-02-16T01:00:00;692.60;;;218.23;;
7783;SDS011;19359;51.402;6.778;2024-02-16T01:02:28;684.90;;;199.53;;
7783;SDS011;19359;51.402;6.778;2024-02-16T01:04:56;691.77;;;221.20;;
7783;SDS011;19359;51.402;6.778;2024-02-16T01:07:27;687.67;;;206.30;;
7783;SDS011;19359;51.402;6.778;2024-02-16T01:09:53;680.90;;;195.87;;
7783;SDS011;19359;51.402;6.778;2024-02-16T01:12:21;685.60;;;199.43;;
7783;SDS011;19359;51.402;6.778;2024-02-16T01:14:48;687.88;;;208.10;;
7783;SDS011;19359;51.402;6.778;2024-02-16T01:17:16;676.63;;;195.30;;
7783;SDS011;19359;51.402;6.778;2024-02-16T01:19:42;674.20;;;190.60;;
7783;SDS011;19359;51.402;6.778;2024-02-16T01:22:09;675.67;;;194.13;;
7783;SDS011;19359;51.402;6.778;2024-02-16T01:24:36;676.80;;;191.27;;
7783;SDS011;19359;51.402;6.778;2024-02-16T01:27:02;673.50;;;189.67;;
7783;SDS011;19359;51.402;6.778;2024-02-16T01:29:29;672.63;;;192.93;;
7783;SDS011;19359;51.402;6.778;2024-02-16T01:31:57;673.73;;;189.93;;
7783;SDS011;19359;51.402;6.778;2024-02-16T01:34:25;675.40;;;198.77;;
7783;SDS011;19359;51.402;6.778;2024-02-16T01:36:52;675.00;;;189.43;;
7783;SDS011;19359;51.402;6.778;2024-02-16T01:39:19;673.13;;;193.27;;
7783;SDS011;19359;51.402;6.778;2024-02-16T01:41:45;673.87;;;201.07;;
7783;SDS011;19359;51.402;6.778;2024-02-16T01:44:12;670.13;;;188.30;;
7783;SDS011;19359;51.402;6.778;2024-02-16T01:46:41;669.07;;;182.47;;
7783;SDS011;19359;51.402;6.778;2024-02-16T01:49:08;668.40;;;177.00;;
7783;SDS011;19359;51.402;6.778;2024-02-16T01:51:37;676.70;;;190.73;;
7783;SDS011;19359;51.402;6.778;2024-02-16T01:54:04;677.77;;;191.00;;
7783;SDS011;19359;51.402;6.778;2024-02-16T01:56:31;677.77;;;198.30;;
7783;SDS011;19359;51.402;6.778;2024-02-16T01:58:58;677.13;;;193.10;;
7783;SDS011;19359;51.402;6.778;2024-02-16T02:01:25;677.27;;;192.43;;
7783;SDS011;19359;51.402;6.778;2024-02-16T02:03:51;673.97;;;192.70;;
7783;SDS011;19359;51.402;6.778;2024-02-16T02:06:18;672.07;;;184.87;;
7783;SDS011;19359;51.402;6.778;2024-02-16T02:08:46;671.50;;;188.43;;
7783;SDS011;19359;51.402;6.778;2024-02-16T02:11:13;675.77;;;196.60;;
7783;SDS011;19359;51.402;6.778;2024-02-16T02:13:40;676.30;;;198.17;;
7783;SDS011;19359;51.402;6.778;2024-02-16T02:16:06;666.67;;;188.93;;
7783;SDS011;19359;51.402;6.778;2024-02-16T02:18:34;666.90;;;181.73;;
7783;SDS011;19359;51.402;6.778;2024-02-16T02:21:01;666.97;;;185.20;;
7783;SDS011;19359;51.402;6.778;2024-02-16T02:23:29;672.53;;;191.17;;
7783;SDS011;19359;51.402;6.778;2024-02-16T02:25:56;679.53;;;201.23;;
7783;SDS011;19359;51.402;6.778;2024-02-16T02:28:22;675.43;;;192.17;;
7783;SDS011;19359;51.402;6.778;2024-02-16T02:30:49;665.40;;;181.07;;
7783;SDS011;19359;51.402;6.778;2024-02-16T02:33:16;662.40;;;178.97;;
7783;SDS011;19359;51.402;6.778;2024-02-16T02:35:43;664.50;;;182.80;;
7783;SDS011;19359;51.402;6.778;2024-02-16T02:38:09;660.73;;;178.10;;
7783;SDS011;19359;51.402;6.778;2024-02-16T02:40:37;660.87;;;171.33;;
7783;SDS011;19359;51.402;6.778;2024-02-16T02:43:04;663.10;;;178.77;;
7783;SDS011;19359;51.402;6.778;2024-02-16T02:45:31;666.47;;;179.30;;
7783;SDS011;19359;51.402;6.778;2024-02-16T02:47:58;660.60;;;174.90;;
7783;SDS011;19359;51.402;6.778;2024-02-16T02:50:24;663.67;;;176.90;;
7783;SDS011;19359;51.402;6.778;2024-02-16T02:52:51;661.97;;;179.50;;
7783;SDS011;19359;51.402;6.778;2024-02-16T02:55:18;664.70;;;180.10;;
7783;SDS011;19359;51.402;6.778;2024-02-16T02:57:46;661.73;;;180.90;;
7783;SDS011;19359;51.402;6.778;2024-02-16T03:00:13;663.67;;;178.93;;
7783;SDS011;19359;51.402;6.778;2024-02-16T03:02:40;663.97;;;183.00;;
7783;SDS011;19359;51.402;6.778;2024-02-16T03:05:08;660.80;;;173.30;;
7783;SDS011;19359;51.402;6.778;2024-02-16T03:07:36;661.97;;;171.40;;
7783;SDS011;19359;51.402;6.778;2024-02-16T03:10:03;659.10;;;174.77;;
7783;SDS011;19359;51.402;6.778;2024-02-16T03:12:31;657.40;;;164.17;;
7783;SDS011;19359;51.402;6.778;2024-02-16T03:14:59;661.17;;;174.40;;
7783;SDS011;19359;51.402;6.778;2024-02-16T03:17:26;658.53;;;169.47;;
7783;SDS011;19359;51.402;6.778;2024-02-16T03:19:53;662.00;;;178.90;;
7783;SDS011;19359;51.402;6.778;2024-02-16T03:22:20;657.40;;;165.90;;
7783;SDS011;19359;51.402;6.778;2024-02-16T03:24:47;660.17;;;168.20;;
7783;SDS011;19359;51.402;6.778;2024-02-16T03:27:13;663.73;;;177.73;;
7783;SDS011;19359;51.402;6.778;2024-02-16T03:29:40;658.40;;;172.67;;
7783;SDS011;19359;51.402;6.778;2024-02-16T03:32:08;660.27;;;170.47;;
7783;SDS011;19359;51.402;6.778;2024-02-16T03:34:35;659.23;;;171.23;;
7783;SDS011;19359;51.402;6.778;2024-02-16T03:37:02;659.47;;;172.17;;
7783;SDS011;19359;51.402;6.778;2024-02-16T03:39:28;657.23;;;169.53;;
7783;SDS011;19359;51.402;6.778;2024-02-16T03:41:55;659.40;;;169.97;;
7783;SDS011;19359;51.402;6.778;2024-02-16T03:44:22;660.90;;;174.73;;
7783;SDS011;19359;51.402;6.778;2024-02-16T03:46:48;660.20;;;170.43;;
7783;SDS011;19359;51.402;6.778;2024-02-16T03:49:16;659.10;;;171.37;;
7783;SDS011;19359;51.402;6.778;2024-02-16T03:51:43;663.60;;;180.77;;
7783;SDS011;19359;51.402;6.778;2024-02-16T03:54:10;658.47;;;173.80;;
7783;SDS011;19359;51.402;6.778;2024-02-16T03:56:37;655.47;;;168.40;;
7783;SDS011;19359;51.402;6.778;2024-02-16T03:59:04;657.17;;;174.67;;
7783;SDS011;19359;51.402;6.778;2024-02-16T04:01:31;661.23;;;174.30;;
7783;SDS011;19359;51.402;6.778;2024-02-16T04:03:57;659.03;;;173.93;;
7783;SDS011;19359;51.402;6.778;2024-02-16T04:06:25;656.73;;;174.30;;
7783;SDS011;19359;51.402;6.778;2024-02-16T04:08:52;662.50;;;173.63;;
7783;SDS011;19359;51.402;6.778;2024-02-16T04:11:19;658.53;;;175.03;;
7783;SDS011;19359;51.402;6.778;2024-02-16T04:13:45;656.00;;;169.33;;
7783;SDS011;19359;51.402;6.778;2024-02-16T04:16:12;659.93;;;177.13;;
7783;SDS011;19359;51.402;6.778;2024-02-16T04:18:39;657.23;;;167.93;;
7783;SDS011;19359;51.402;6.778;2024-02-16T04:21:05;656.00;;;171.17;;
7783;SDS011;19359;51.402;6.778;2024-02-16T04:23:33;657.37;;;170.17;;
7783;SDS011;19359;51.402;6.778;2024-02-16T04:26:00;655.77;;;173.93;;
7783;SDS011;19359;51.402;6.778;2024-02-16T04:28:27;658.60;;;172.10;;
7783;SDS011;19359;51.402;6.778;2024-02-16T04:30:54;656.67;;;175.87;;
7783;SDS011;19359;51.402;6.778;2024-02-16T04:33:21;657.07;;;169.90;;
7783;SDS011;19359;51.402;6.778;2024-02-16T04:35:47;657.73;;;175.23;;
7783;SDS011;19359;51.402;6.778;2024-02-16T04:38:15;655.00;;;166.20;;
7783;SDS011;19359;51.402;6.778;2024-02-16T04:40:44;653.47;;;172.10;;
7783;SDS011;19359;51.402;6.778;2024-02-16T04:43:11;663.33;;;173.60;;
7783;SDS011;19359;51.402;6.778;2024-02-16T04:45:38;663.33;;;175.57;;
7783;SDS011;19359;51.402;6.778;2024-02-16T04:48:05;653.10;;;167.87;;
7783;SDS011;19359;51.402;6.778;2024-02-16T04:50:33;654.80;;;167.10;;
7783;SDS011;19359;51.402;6.778;2024-02-16T04:53:00;654.50;;;169.63;;
7783;SDS011;19359;51.402;6.778;2024-02-16T04:55:27;653.60;;;164.50;;
7783;SDS011;19359;51.402;6.778;2024-02-16T04:57:56;650.77;;;162.87;;
7783;SDS011;19359;51.402;6.778;2024-02-16T05:00:23;653.47;;;167.03;;
7783;SDS011;19359;51.402;6.778;2024-02-16T05:02:50;655.70;;;170.47;;
7783;SDS011;19359;51.402;6.778;2024-02-16T05:05:18;660.70;;;167.60;;
7783;SDS011;19359;51.402;6.778;2024-02-16T05:07:46;655.47;;;169.47;;
7783;SDS011;19359;51.402;6.778;2024-02-16T05:10:14;658.10;;;164.43;;
7783;SDS011;19359;51.402;6.778;2024-02-16T05:12:41;654.13;;;165.43;;
7783;SDS011;19359;51.402;6.778;2024-02-16T05:15:09;653.63;;;162.77;;
7783;SDS011;19359;51.402;6.778;2024-02-16T05:17:38;657.40;;;166.10;;
7783;SDS011;19359;51.402;6.778;2024-02-16T05:20:09;653.93;;;166.77;;
7783;SDS011;19359;51.402;6.778;2024-02-16T05:22:40;651.50;;;160.73;;
7783;SDS011;19359;51.402;6.778;2024-02-16T05:25:08;658.10;;;162.47;;
7783;SDS011;19359;51.402;6.778;2024-02-16T05:27:34;652.50;;;165.13;;
7783;SDS011;19359;51.402;6.778;2024-02-16T05:30:02;652.03;;;160.70;;
7783;SDS011;19359;51.402;6.778;2024-02-16T05:32:34;653.60;;;162.03;;
7783;SDS011;19359;51.402;6.778;2024-02-16T05:35:01;651.70;;;156.93;;
7783;SDS011;19359;51.402;6.778;2024-02-16T05:37:29;653.80;;;164.57;;
7783;SDS011;19359;51.402;6.778;2024-02-16T05:39:57;652.23;;;162.47;;
7783;SDS011;19359;51.402;6.778;2024-02-16T05:42:33;649.07;;;157.87;;
7783;SDS011;19359;51.402;6.778;2024-02-16T05:45:00;651.00;;;161.23;;
7783;SDS011;19359;51.402;6.778;2024-02-16T05:47:27;654.53;;;161.20;;
7783;SDS011;19359;51.402;6.778;2024-02-16T05:49:55;653.53;;;159.67;;
7783;SDS011;19359;51.402;6.778;2024-02-16T05:52:23;655.37;;;163.93;;
7783;SDS011;19359;51.402;6.778;2024-02-16T05:54:50;649.67;;;159.00;;
7783;SDS011;19359;51.402;6.778;2024-02-16T05:57:18;651.17;;;159.97;;
7783;SDS011;19359;51.402;6.778;2024-02-16T05:59:44;653.50;;;162.20;;
7783;SDS011;19359;51.402;6.778;2024-02-16T06:02:11;653.67;;;163.17;;
7783;SDS011;19359;51.402;6.778;2024-02-16T06:04:38;654.10;;;161.90;;
7783;SDS011;19359;51.402;6.778;2024-02-16T06:07:06;651.83;;;158.83;;
7783;SDS011;19359;51.402;6.778;2024-02-16T06:09:34;650.63;;;156.67;;
7783;SDS011;19359;51.402;6.778;2024-02-16T06:12:02;654.53;;;164.27;;
7783;SDS011;19359;51.402;6.778;2024-02-16T06:14:30;656.77;;;166.03;;
7783;SDS011;19359;51.402;6.778;2024-02-16T06:16:57;652.27;;;160.87;;
7783;SDS011;19359;51.402;6.778;2024-02-16T06:19:24;653.47;;;162.67;;
7783;SDS011;19359;51.402;6.778;2024-02-16T06:21:51;652.80;;;161.30;;
7783;SDS011;19359;51.402;6.778;2024-02-16T06:24:20;652.03;;;163.70;;
7783;SDS011;19359;51.402;6.778;2024-02-16T06:26:48;652.50;;;165.50;;
7783;SDS011;19359;51.402;6.778;2024-02-16T06:29:15;652.97;;;162.10;;
7783;SDS011;19359;51.402;6.778;2024-02-16T06:31:41;654.73;;;166.93;;
7783;SDS011;19359;51.402;6.778;2024-02-16T06:34:08;654.40;;;164.03;;
7783;SDS011;19359;51.402;6.778;2024-02-16T06:36:35;658.67;;;165.70;;
7783;SDS011;19359;51.402;6.778;2024-02-16T06:39:01;655.90;;;167.57;;
7783;SDS011;19359;51.402;6.778;2024-02-16T06:41:30;653.90;;;161.17;;
7783;SDS011;19359;51.402;6.778;2024-02-16T06:43:57;650.40;;;162.43;;
7783;SDS011;19359;51.402;6.778;2024-02-16T06:46:23;650.60;;;159.97;;
7783;SDS011;19359;51.402;6.778;2024-02-16T06:48:52;648.37;;;158.90;;
7783;SDS011;19359;51.402;6.778;2024-02-16T06:51:21;649.97;;;159.80;;
7783;SDS011;19359;51.402;6.778;2024-02-16T06:53:48;649.87;;;159.33;;
7783;SDS011;19359;51.402;6.778;2024-02-16T06:56:15;653.53;;;167.60;;
7783;SDS011;19359;51.402;6.778;2024-02-16T06:58:44;651.67;;;162.97;;
7783;SDS011;19359;51.402;6.778;2024-02-16T07:01:10;646.47;;;157.93;;
7783;SDS011;19359;51.402;6.778;2024-02-16T07:03:38;651.23;;;163.23;;
7783;SDS011;19359;51.402;6.778;2024-02-16T07:06:05;657.10;;;167.33;;
7783;SDS011;19359;51.402;6.778;2024-02-16T07:08:36;649.93;;;162.90;;
7783;SDS011;19359;51.402;6.778;2024-02-16T07:11:03;650.87;;;160.60;;
7783;SDS011;19359;51.402;6.778;2024-02-16T07:13:30;651.80;;;166.30;;
7783;SDS011;19359;51.402;6.778;2024-02-16T07:15:58;650.53;;;161.13;;
7783;SDS011;19359;51.402;6.778;2024-02-16T07:18:24;655.43;;;169.30;;
7783;SDS011;19359;51.402;6.778;2024-02-16T07:20:51;649.97;;;164.23;;
7783;SDS011;19359;51.402;6.778;2024-02-16T07:23:18;651.33;;;162.10;;
7783;SDS011;19359;51.402;6.778;2024-02-16T07:25:45;650.10;;;163.60;;
7783;SDS011;19359;51.402;6.778;2024-02-16T07:28:13;650.77;;;164.33;;
7783;SDS011;19359;51.402;6.778;2024-02-16T07:30:40;651.30;;;166.87;;
7783;SDS011;19359;51.402;6.778;2024-02-16T07:33:08;650.23;;;164.17;;
7783;SDS011;19359;51.402;6.778;2024-02-16T07:35:35;652.03;;;170.67;;
7783;SDS011;19359;51.402;6.778;2024-02-16T07:38:03;651.10;;;167.93;;
7783;SDS011;19359;51.402;6.778;2024-02-16T07:40:30;653.97;;;169.17;;
7783;SDS011;19359;51.402;6.778;2024-02-16T07:42:57;649.47;;;165.30;;
7783;SDS011;19359;51.402;6.778;2024-02-16T07:45:24;652.07;;;170.63;;
7783;SDS011;19359;51.402;6.778;2024-02-16T07:47:51;649.37;;;168.57;;
7783;SDS011;19359;51.402;6.778;2024-02-16T07:50:19;652.83;;;171.40;;
7783;SDS011;19359;51.402;6.778;2024-02-16T07:52:47;655.73;;;173.50;;
7783;SDS011;19359;51.402;6.778;2024-02-16T07:55:13;656.00;;;174.93;;
7783;SDS011;19359;51.402;6.778;2024-02-16T07:57:42;654.10;;;175.13;;
7783;SDS011;19359;51.402;6.778;2024-02-16T08:00:09;654.67;;;176.20;;
7783;SDS011;19359;51.402;6.778;2024-02-16T08:02:36;656.97;;;180.57;;
7783;SDS011;19359;51.402;6.778;2024-02-16T08:05:05;653.93;;;179.23;;
7783;SDS011;19359;51.402;6.778;2024-02-16T08:07:34;655.33;;;180.00;;
7783;SDS011;19359;51.402;6.778;2024-02-16T08:10:01;654.37;;;178.60;;
7783;SDS011;19359;51.402;6.778;2024-02-16T08:12:27;654.47;;;183.20;;
7783;SDS011;19359;51.402;6.778;2024-02-16T08:14:56;656.03;;;179.07;;
7783;SDS011;19359;51.402;6.778;2024-02-16T08:17:23;656.90;;;184.47;;
7783;SDS011;19359;51.402;6.778;2024-02-16T08:19:51;656.40;;;185.33;;
7783;SDS011;19359;51.402;6.778;2024-02-16T08:22:19;653.00;;;180.67;;
7783;SDS011;19359;51.402;6.778;2024-02-16T08:24:47;653.33;;;180.23;;
7783;SDS011;19359;51.402;6.778;2024-02-16T08:27:15;653.93;;;182.07;;
7783;SDS011;19359;51.402;6.778;2024-02-16T08:29:42;658.77;;;181.70;;
7783;SDS011;19359;51.402;6.778;2024-02-16T08:32:08;656.97;;;186.40;;
7783;SDS011;19359;51.402;6.778;2024-02-16T08:34:36;654.83;;;182.67;;
7783;SDS011;19359;51.402;6.778;2024-02-16T08:37:04;660.90;;;183.13;;
7783;SDS011;19359;51.402;6.778;2024-02-16T08:39:32;654.40;;;181.33;;
7783;SDS011;19359;51.402;6.778;2024-02-16T08:42:01;660.93;;;190.23;;
7783;SDS011;19359;51.402;6.778;2024-02-16T08:44:28;658.13;;;190.73;;
7783;SDS011;19359;51.402;6.778;2024-02-16T08:46:54;656.43;;;183.53;;
7783;SDS011;19359;51.402;6.778;2024-02-16T08:49:21;664.93;;;193.47;;
7783;SDS011;19359;51.402;6.778;2024-02-16T08:51:48;664.23;;;193.17;;
7783;SDS011;19359;51.402;6.778;2024-02-16T08:54:15;657.47;;;188.13;;
7783;SDS011;19359;51.402;6.778;2024-02-16T08:56:43;661.23;;;194.10;;
7783;SDS011;19359;51.402;6.778;2024-02-16T08:59:12;703.20;;;253.73;;
7783;SDS011;19359;51.402;6.778;2024-02-16T09:01:38;528.90;;;442.33;;
7783;SDS011;19359;51.402;6.778;2024-02-16T09:04:05;494.73;;;437.08;;
7783;SDS011;19359;51.402;6.778;2024-02-16T09:06:32;663.22;;;426.45;;
7783;SDS011;19359;51.402;6.778;2024-02-16T09:08:59;0.82;;;0.82;;
7783;SDS011;19359;51.402;6.778;2024-02-16T09:11:26;740.25;;;427.73;;
7783;SDS011;19359;51.402;6.778;2024-02-16T09:13:53;712.63;;;444.88;;
7783;SDS011;19359;51.402;6.778;2024-02-16T09:16:21;221.40;;;187.98;;
7783;SDS011;19359;51.402;6.778;2024-02-16T09:18:48;1.70;;;0.77;;
7783;SDS011;19359;51.402;6.778;2024-02-16T09:21:15;720.03;;;449.83;;
7783;SDS011;19359;51.402;6.778;2024-02-16T09:23:42;717.50;;;444.63;;
7783;SDS011;19359;51.402;6.778;2024-02-16T09:26:09;2.58;;;1.10;;
7783;SDS011;19359;51.402;6.778;2024-02-16T09:28:38;2.80;;;0.90;;
7783;SDS011;19359;51.402;6.778;2024-02-16T09:31:06;0.75;;;0.75;;
7783;SDS011;19359;51.402;6.778;2024-02-16T09:33:34;65.10;;;61.47;;
7783;SDS011;19359;51.402;6.778;2024-02-16T09:36:01;274.45;;;253.80;;
7783;SDS011;19359;51.402;6.778;2024-02-16T09:38:29;457.38;;;409.88;;
7783;SDS011;19359;51.402;6.778;2024-02-16T09:40:56;781.35;;;395.92;;
7783;SDS011;19359;51.402;6.778;2024-02-16T09:43:27;775.05;;;387.95;;
7783;SDS011;19359;51.402;6.778;2024-02-16T09:45:54;775.78;;;390.20;;
7783;SDS011;19359;51.402;6.778;2024-02-16T09:48:22;784.47;;;402.35;;
7783;SDS011;19359;51.402;6.778;2024-02-16T09:50:53;790.58;;;436.63;;
7783;SDS011;19359;51.402;6.778;2024-02-16T09:53:21;782.67;;;398.20;;
7783;SDS011;19359;51.402;6.778;2024-02-16T09:55:51;784.55;;;409.85;;
7783;SDS011;19359;51.402;6.778;2024-02-16T09:58:18;697.28;;;434.73;;
7783;SDS011;19359;51.402;6.778;2024-02-16T10:00:48;625.63;;;440.55;;
7783;SDS011;19359;51.402;6.778;2024-02-16T10:03:22;597.17;;;439.67;;
7783;SDS011;19359;51.402;6.778;2024-02-16T10:05:50;621.10;;;461.85;;
7783;SDS011;19359;51.402;6.778;2024-02-16T10:08:18;683.03;;;449.17;;
7783;SDS011;19359;51.402;6.778;2024-02-16T10:10:45;782.58;;;410.98;;
7783;SDS011;19359;51.402;6.778;2024-02-16T10:13:15;778.15;;;398.13;;
7783;SDS011;19359;51.402;6.778;2024-02-16T10:15:41;777.15;;;404.88;;
7783;SDS011;19359;51.402;6.778;2024-02-16T10:18:08;776.10;;;392.35;;
7783;SDS011;19359;51.402;6.778;2024-02-16T10:20:35;775.33;;;397.52;;
7783;SDS011;19359;51.402;6.778;2024-02-16T10:23:06;778.75;;;398.38;;
7783;SDS011;19359;51.402;6.778;2024-02-16T10:25:33;734.50;;;431.52;;
7783;SDS011;19359;51.402;6.778;2024-02-16T10:28:02;725.63;;;435.52;;
7783;SDS011;19359;51.402;6.778;2024-02-16T10:30:33;654.55;;;434.35;;
7783;SDS011;19359;51.402;6.778;2024-02-16T10:33:02;725.47;;;431.95;;
7783;SDS011;19359;51.402;6.778;2024-02-16T10:35:29;738.67;;;436.35;;
7783;SDS011;19359;51.402;6.778;2024-02-16T10:37:58;758.55;;;424.65;;
7783;SDS011;19359;51.402;6.778;2024-02-16T10:40:31;754.90;;;424.45;;
7783;SDS011;19359;51.402;6.778;2024-02-16T10:43:00;779.80;;;413.30;;
7783;SDS011;19359;51.402;6.778;2024-02-16T10:45:30;774.63;;;404.67;;
7783;SDS011;19359;51.402;6.778;2024-02-16T10:47:58;772.72;;;408.10;;
7783;SDS011;19359;51.402;6.778;2024-02-16T10:50:25;779.97;;;396.08;;
7783;SDS011;19359;51.402;6.778;2024-02-16T10:52:52;774.28;;;379.77;;
7783;SDS011;19359;51.402;6.778;2024-02-16T10:55:21;777.67;;;380.95;;
7783;SDS011;19359;51.402;6.778;2024-02-16T10:57:50;779.03;;;386.13;;
7783;SDS011;19359;51.402;6.778;2024-02-16T11:00:19;774.22;;;378.17;;
7783;SDS011;19359;51.402;6.778;2024-02-16T11:02:55;778.50;;;393.20;;
7783;SDS011;19359;51.402;6.778;2024-02-16T11:05:33;776.45;;;381.02;;
7783;SDS011;19359;51.402;6.778;2024-02-16T11:08:01;773.33;;;380.38;;
7783;SDS011;19359;51.402;6.778;2024-02-16T11:10:29;768.65;;;370.67;;
7783;SDS011;19359;51.402;6.778;2024-02-16T11:13:01;768.80;;;375.50;;
7783;SDS011;19359;51.402;6.778;2024-02-16T11:15:30;768.03;;;369.67;;
7783;SDS011;19359;51.402;6.778;2024-02-16T11:17:57;764.72;;;365.33;;
7783;SDS011;19359;51.402;6.778;2024-02-16T11:20:26;764.67;;;367.20;;
7783;SDS011;19359;51.402;6.778;2024-02-16T11:22:53;758.78;;;346.08;;
7783;SDS011;19359;51.402;6.778;2024-02-16T11:25:30;761.45;;;355.15;;
7783;SDS011;19359;51.402;6.778;2024-02-16T11:27:57;761.47;;;353.73;;
7783;SDS011;19359;51.402;6.778;2024-02-16T11:30:26;760.13;;;347.15;;
7783;SDS011;19359;51.402;6.778;2024-02-16T11:32:52;756.15;;;338.35;;
7783;SDS011;19359;51.402;6.778;2024-02-16T11:35:19;751.63;;;335.20;;
7783;SDS011;19359;51.402;6.778;2024-02-16T11:37:46;753.25;;;336.42;;
7783;SDS011;19359;51.402;6.778;2024-02-16T11:40:13;748.53;;;339.55;;
7783;SDS011;19359;51.402;6.778;2024-02-16T11:42:39;751.67;;;342.33;;
7783;SDS011;19359;51.402;6.778;2024-02-16T11:45:10;749.20;;;336.98;;
7783;SDS011;19359;51.402;6.778;2024-02-16T11:47:39;756.40;;;350.40;;
7783;SDS011;19359;51.402;6.778;2024-02-16T11:50:06;770.72;;;361.20;;
7783;SDS011;19359;51.402;6.778;2024-02-16T11:52:36;776.35;;;381.55;;
7783;SDS011;19359;51.402;6.778;2024-02-16T11:55:03;771.42;;;376.60;;
7783;SDS011;19359;51.402;6.778;2024-02-16T11:57:33;764.75;;;355.75;;
7783;SDS011;19359;51.402;6.778;2024-02-16T12:00:01;761.63;;;354.23;;
7783;SDS011;19359;51.402;6.778;2024-02-16T12:02:31;755.80;;;341.77;;
7783;SDS011;19359;51.402;6.778;2024-02-16T12:04:59;757.08;;;346.42;;
7783;SDS011;19359;51.402;6.778;2024-02-16T12:07:26;761.42;;;341.65;;
7783;SDS011;19359;51.402;6.778;2024-02-16T12:09:55;752.20;;;339.60;;
7783;SDS011;19359;51.402;6.778;2024-02-16T12:12:22;749.35;;;329.58;;
7783;SDS011;19359;51.402;6.778;2024-02-16T12:14:49;725.90;;;301.13;;
7783;SDS011;19359;51.402;6.778;2024-02-16T12:17:16;727.85;;;298.38;;
7783;SDS011;19359;51.402;6.778;2024-02-16T12:19:43;737.78;;;316.70;;
7783;SDS011;19359;51.402;6.778;2024-02-16T12:22:15;734.90;;;316.20;;
7783;SDS011;19359;51.402;6.778;2024-02-16T12:24:43;736.75;;;310.17;;
7783;SDS011;19359;51.402;6.778;2024-02-16T12:27:10;737.13;;;324.65;;
7783;SDS011;19359;51.402;6.778;2024-02-16T12:29:37;752.20;;;322.90;;
7783;SDS011;19359;51.402;6.778;2024-02-16T12:32:05;751.58;;;326.77;;
7783;SDS011;19359;51.402;6.778;2024-02-16T12:34:34;751.15;;;325.73;;
7783;SDS011;19359;51.402;6.778;2024-02-16T12:37:03;752.10;;;329.88;;
7783;SDS011;19359;51.402;6.778;2024-02-16T12:39:33;746.75;;;314.15;;
7783;SDS011;19359;51.402;6.778;2024-02-16T12:42:00;746.30;;;308.30;;
7783;SDS011;19359;51.402;6.778;2024-02-16T12:44:28;745.25;;;318.95;;
7783;SDS011;19359;51.402;6.778;2024-02-16T12:46:55;744.67;;;312.27;;
7783;SDS011;19359;51.402;6.778;2024-02-16T12:49:22;747.08;;;316.83;;
7783;SDS011;19359;51.402;6.778;2024-02-16T12:51:49;743.00;;;306.85;;
7783;SDS011;19359;51.402;6.778;2024-02-16T12:54:16;745.45;;;319.13;;
7783;SDS011;19359;51.402;6.778;2024-02-16T12:56:45;742.78;;;308.05;;
7783;SDS011;19359;51.402;6.778;2024-02-16T12:59:13;743.95;;;312.85;;
7783;SDS011;19359;51.402;6.778;2024-02-16T13:01:40;739.42;;;293.08;;
7783;SDS011;19359;51.402;6.778;2024-02-16T13:04:07;743.05;;;303.33;;
7783;SDS011;19359;51.402;6.778;2024-02-16T13:06:34;739.00;;;294.80;;
7783;SDS011;19359;51.402;6.778;2024-02-16T13:09:02;738.97;;;295.38;;
7783;SDS011;19359;51.402;6.778;2024-02-16T13:11:30;739.30;;;294.23;;
7783;SDS011;19359;51.402;6.778;2024-02-16T13:14:00;740.70;;;297.70;;
7783;SDS011;19359;51.402;6.778;2024-02-16T13:16:26;737.15;;;293.15;;
7783;SDS011;19359;51.402;6.778;2024-02-16T13:18:53;737.67;;;294.63;;
7783;SDS011;19359;51.402;6.778;2024-02-16T13:21:20;736.75;;;294.27;;
7783;SDS011;19359;51.402;6.778;2024-02-16T13:23:46;733.38;;;285.38;;
7783;SDS011;19359;51.402;6.778;2024-02-16T13:26:13;740.13;;;295.42;;
7783;SDS011;19359;51.402;6.778;2024-02-16T13:28:41;738.20;;;298.25;;
7783;SDS011;19359;51.402;6.778;2024-02-16T13:31:09;733.72;;;284.13;;
7783;SDS011;19359;51.402;6.778;2024-02-16T13:33:36;739.30;;;286.88;;
7783;SDS011;19359;51.402;6.778;2024-02-16T13:36:03;733.90;;;289.83;;
7783;SDS011;19359;51.402;6.778;2024-02-16T13:38:30;731.92;;;286.27;;
7783;SDS011;19359;51.402;6.778;2024-02-16T13:40:57;742.00;;;297.85;;
7783;SDS011;19359;51.402;6.778;2024-02-16T13:43:23;735.20;;;292.35;;
7783;SDS011;19359;51.402;6.778;2024-02-16T13:45:51;732.28;;;288.55;;
7783;SDS011;19359;51.402;6.778;2024-02-16T13:48:20;733.78;;;282.35;;
7783;SDS011;19359;51.402;6.778;2024-02-16T13:50:47;729.60;;;276.23;;
7783;SDS011;19359;51.402;6.778;2024-02-16T13:53:14;726.80;;;265.75;;
7783;SDS011;19359;51.402;6.778;2024-02-16T13:55:42;730.95;;;279.95;;
7783;SDS011;19359;51.402;6.778;2024-02-16T13:58:09;727.72;;;272.08;;
7783;SDS011;19359;51.402;6.778;2024-02-16T14:00:36;724.08;;;269.77;;
7783;SDS011;19359;51.402;6.778;2024-02-16T14:03:04;727.10;;;282.33;;
7783;SDS011;19359;51.402;6.778;2024-02-16T14:05:35;723.50;;;261.08;;
7783;SDS011;19359;51.402;6.778;2024-02-16T14:08:02;720.05;;;259.58;;
7783;SDS011;19359;51.402;6.778;2024-02-16T14:10:29;718.38;;;259.05;;